createdAt,value
2023-02-08T00:04:53.988Z,31.10
2023-02-08T00:09:58.832Z,30.37
2023-02-08T00:15:01.887Z,31.13
2023-02-08T00:20:05.336Z,30.20
2023-02-08T00:25:10.241Z,32.47
2023-02-08T00:30:13.817Z,30.57
2023-02-08T00:35:17.987Z,30.10
2023-02-08T00:40:23.190Z,30.03
2023-02-08T00:45:26.381Z,29.27
2023-02-08T00:50:29.601Z,26.87
2023-02-08T00:55:34.076Z,25.27
2023-02-08T01:00:37.212Z,24.13
2023-02-08T01:05:40.642Z,23.43
2023-02-08T01:10:45.517Z,24.37
2023-02-08T01:15:48.784Z,22.87
2023-02-08T01:20:51.900Z,24.50
2023-02-08T01:25:56.385Z,22.37
2023-02-08T01:30:59.865Z,21.67
2023-02-08T01:36:03.472Z,21.03
2023-02-08T01:41:11.260Z,20.70
2023-02-08T01:46:14.400Z,19.23
2023-02-08T01:51:22.595Z,20.40
2023-02-08T01:56:33.296Z,20.83
2023-02-08T02:01:37.447Z,22.30
2023-02-08T02:06:44.113Z,22.73
2023-02-08T02:11:50.746Z,21.70
2023-02-08T02:16:54.748Z,22.23
2023-02-08T02:22:08.689Z,21.97
2023-02-08T02:27:36.844Z,21.63
2023-02-08T02:33:00.785Z,20.10
2023-02-08T02:38:16.128Z,21.47
2023-02-08T02:43:42.791Z,22.20
2023-02-08T02:48:54.432Z,22.53
2023-02-08T02:54:02.177Z,22.20
2023-02-08T02:59:08.862Z,23.83
2023-02-08T03:04:18.100Z,26.80
2023-02-08T03:09:38.526Z,24.93
2023-02-08T03:14:52.393Z,25.43
2023-02-08T03:20:04.750Z,23.53
2023-02-08T03:25:13.154Z,26.67
2023-02-08T03:30:21.963Z,24.77
2023-02-08T03:35:32.178Z,23.20
2023-02-08T03:40:41.749Z,24.17
2023-02-08T03:45:53.640Z,21.53
2023-02-08T03:51:01.150Z,24.53
2023-02-08T03:56:10.338Z,25.10
2023-02-08T04:01:19.259Z,22.67
2023-02-08T04:06:24.838Z,25.83
2023-02-08T04:11:28.103Z,23.73
2023-02-08T04:16:31.178Z,25.40
2023-02-08T04:21:35.837Z,25.17
2023-02-08T04:26:39.269Z,23.03
2023-02-08T04:31:42.490Z,26.33
2023-02-08T04:36:47.155Z,25.17
2023-02-08T04:41:50.264Z,25.83
2023-02-08T04:46:53.524Z,24.60
2023-02-08T04:51:58.315Z,25.27
2023-02-08T04:57:01.600Z,25.37
2023-02-08T05:02:04.695Z,24.97
2023-02-08T05:07:09.743Z,23.17
2023-02-08T05:12:13.140Z,22.10
2023-02-08T05:17:16.628Z,24.77
2023-02-08T05:22:21.101Z,21.80
2023-02-08T05:27:24.883Z,24.97
2023-02-08T05:32:28.521Z,25.60
2023-02-08T05:37:33.500Z,23.63
2023-02-08T05:42:37.314Z,23.27
2023-02-08T05:47:42.163Z,23.50
2023-02-08T05:52:46.720Z,23.03
2023-02-08T05:57:55.917Z,24.93
2023-02-08T06:03:02.464Z,22.97
2023-02-08T06:08:10.769Z,24.23
2023-02-08T06:13:14.214Z,24.70
2023-02-08T06:18:18.509Z,23.53
2023-02-08T06:23:23.858Z,24.50
2023-02-08T06:28:31.077Z,24.60
2023-02-08T06:33:38.914Z,23.40
2023-02-08T06:38:44.528Z,23.97
2023-02-08T06:43:51.153Z,24.40
2023-02-08T06:48:58.532Z,24.53
2023-02-08T06:54:03.228Z,24.47
2023-02-08T06:59:07.075Z,24.27
2023-02-08T07:04:10.470Z,24.70
2023-02-08T07:09:14.958Z,25.10
2023-02-08T07:14:18.183Z,25.83
2023-02-08T07:19:21.366Z,25.30
2023-02-08T07:24:26.142Z,25.97
2023-02-08T07:29:30.852Z,25.40
2023-02-08T07:34:35.740Z,25.57
2023-02-08T07:39:51.141Z,24.90
2023-02-08T07:44:54.421Z,22.30
2023-02-08T07:49:57.838Z,22.97
2023-02-08T07:55:02.645Z,23.17
2023-02-08T08:00:06.747Z,23.70
2023-02-08T08:05:12.883Z,27.80
2023-02-08T08:10:17.590Z,24.70
2023-02-08T08:15:20.840Z,23.10
2023-02-08T08:20:24.104Z,23.80
2023-02-08T08:25:28.708Z,21.43
2023-02-08T08:30:32.165Z,20.93
2023-02-08T08:35:35.262Z,23.33
2023-02-08T08:40:40.208Z,22.53
2023-02-08T08:45:43.535Z,22.87
2023-02-08T08:50:47.280Z,22.10
2023-02-08T08:55:53.121Z,22.30
2023-02-08T09:00:58.595Z,22.43
2023-02-08T09:06:01.792Z,22.17
2023-02-08T09:11:10.799Z,23.00
2023-02-08T09:16:15.810Z,22.97
2023-02-08T09:21:20.892Z,22.67
2023-02-08T09:26:26.750Z,21.67
2023-02-08T09:31:31.735Z,23.03
2023-02-08T09:36:36.893Z,21.40
2023-02-08T09:42:09.418Z,22.33
2023-02-08T09:47:19.553Z,22.10
2023-02-08T09:52:26.249Z,22.07
2023-02-08T09:57:34.667Z,21.87
2023-02-08T10:02:37.995Z,22.53
2023-02-08T10:07:42.552Z,21.93
2023-02-08T10:12:55.379Z,22.23
2023-02-08T10:18:20.439Z,20.30
2023-02-08T10:23:36.356Z,17.97
2023-02-08T10:29:14.743Z,19.60
2023-02-08T10:34:31.666Z,18.60
2023-02-08T10:39:38.191Z,18.53
2023-02-08T10:44:56.449Z,16.73
2023-02-08T10:50:03.963Z,18.43
2023-02-08T10:55:16.336Z,17.73
2023-02-08T11:00:27.945Z,19.03
2023-02-08T11:05:41.047Z,18.60
2023-02-08T11:10:47.856Z,18.27
2023-02-08T11:16:00.522Z,18.20
2023-02-08T11:21:06.451Z,18.43
2023-02-08T11:26:20.936Z,16.93
2023-02-08T11:31:26.347Z,18.10
2023-02-08T11:36:32.744Z,16.63
2023-02-08T11:41:37.781Z,16.67
2023-02-08T11:46:49.209Z,16.03
2023-02-08T11:51:53.662Z,14.67
2023-02-08T11:57:04.202Z,13.83
2023-02-08T12:02:30.136Z,14.97
2023-02-08T12:07:42.057Z,14.77
2023-02-08T12:12:59.232Z,15.13
2023-02-08T12:18:16.568Z,13.73
2023-02-08T12:23:47.735Z,15.30
2023-02-08T12:29:08.674Z,13.80
2023-02-08T12:34:19.811Z,12.83
2023-02-08T12:39:56.135Z,14.83
2023-02-08T12:45:25.027Z,14.30
2023-02-08T12:50:40.452Z,13.57
2023-02-08T12:55:46.421Z,13.20
2023-02-08T13:00:51.884Z,12.83
2023-02-08T13:06:02.193Z,12.77
2023-02-08T13:11:19.838Z,13.87
2023-02-08T13:16:27.580Z,14.97
2023-02-08T13:21:38.126Z,16.63
2023-02-08T13:26:42.023Z,17.40
2023-02-08T13:31:49.419Z,18.40
2023-02-08T13:36:59.477Z,17.37
2023-02-08T13:42:04.558Z,17.10
2023-02-08T13:47:09.121Z,19.47
2023-02-08T13:52:54.508Z,18.53
2023-02-08T13:58:00.286Z,19.07
2023-02-08T14:03:20.849Z,18.77
2023-02-08T14:08:33.317Z,16.23
2023-02-08T14:13:40.760Z,17.53
2023-02-08T14:18:53.613Z,15.53
2023-02-08T14:24:06.375Z,16.70
2023-02-08T14:29:09.504Z,16.57
2023-02-08T14:34:25.415Z,15.30
2023-02-08T14:39:33.521Z,15.47
2023-02-08T14:45:04.276Z,17.00
2023-02-08T14:50:17.946Z,15.90
2023-02-08T14:55:27.617Z,17.40
2023-02-08T15:00:35.274Z,20.73
2023-02-08T15:05:47.540Z,20.20
2023-02-08T15:10:52.272Z,20.63
2023-02-08T15:15:58.831Z,18.77
2023-02-08T15:21:04.838Z,20.57
2023-02-08T15:26:22.167Z,20.33
2023-02-08T15:31:31.739Z,22.33
2023-02-08T15:36:38.662Z,20.80
2023-02-08T15:41:43.092Z,21.43
2023-02-08T15:51:57.957Z,19.33
2023-02-08T15:57:07.553Z,17.00
2023-02-08T16:02:23.899Z,19.67
2023-02-08T16:07:31.715Z,19.20
2023-02-08T16:12:37.486Z,16.93
2023-02-08T16:17:46.317Z,18.40
2023-02-08T16:22:58.319Z,16.77
2023-02-08T16:28:03.340Z,18.63
2023-02-08T16:33:08.561Z,19.70
2023-02-08T16:38:19.043Z,20.93
2023-02-08T16:43:28.129Z,18.60
2023-02-08T16:48:36.084Z,19.23
2023-02-08T16:53:42.611Z,18.83
2023-02-08T16:58:47.260Z,17.63
2023-02-08T17:03:53.015Z,17.83
2023-02-08T17:08:57.106Z,17.17
2023-02-08T17:14:02.174Z,15.53
2023-02-08T17:19:05.883Z,16.93
2023-02-08T17:24:09.068Z,16.70
2023-02-08T17:29:15.492Z,17.13
2023-02-08T17:34:19.409Z,16.93
2023-02-08T17:39:22.936Z,16.53
2023-02-08T17:44:27.565Z,18.47
2023-02-08T17:49:31.532Z,16.53
2023-02-08T17:54:36.846Z,17.43
2023-02-08T17:59:42.463Z,17.97
2023-02-08T18:04:48.903Z,17.83
2023-02-08T18:09:52.406Z,18.30
2023-02-08T18:14:57.086Z,18.93
2023-02-08T18:20:00.678Z,18.43
2023-02-08T18:25:04.670Z,17.20
2023-02-08T18:30:13.750Z,18.50
2023-02-08T18:35:17.858Z,19.03
2023-02-08T18:40:21.350Z,19.27
2023-02-08T18:45:26.051Z,18.57
2023-02-08T18:50:30.314Z,16.93
2023-02-08T18:55:38.304Z,19.37
2023-02-08T19:00:45.902Z,19.30
2023-02-08T19:05:52.283Z,19.93
2023-02-08T19:10:55.724Z,19.43
2023-02-08T19:16:10.599Z,19.80
2023-02-08T19:21:17.130Z,20.20
2023-02-08T19:26:24.894Z,20.57
2023-02-08T19:31:30.601Z,20.70
2023-02-08T19:36:36.244Z,20.90
2023-02-08T19:41:40.537Z,21.50
2023-02-08T19:46:48.910Z,20.53
2023-02-08T19:51:52.029Z,21.47
2023-02-08T19:57:04.400Z,20.57
2023-02-08T20:02:21.723Z,21.80
2023-02-08T20:07:28.392Z,21.70
2023-02-08T20:12:43.204Z,20.83
2023-02-08T20:18:02.950Z,18.33
2023-02-08T20:23:14.031Z,20.47
2023-02-08T20:28:23.161Z,19.57
2023-02-08T20:33:27.693Z,19.97
2023-02-08T20:38:42.064Z,19.20
2023-02-08T20:43:48.235Z,19.70
2023-02-08T20:48:53.987Z,19.40
2023-02-08T20:54:01.906Z,20.00
2023-02-08T20:59:10.460Z,20.60
2023-02-08T21:04:17.609Z,22.87
2023-02-08T21:09:21.862Z,20.73
2023-02-08T21:14:27.197Z,22.13
2023-02-08T21:19:32.003Z,21.13
2023-02-08T21:24:36.488Z,20.63
2023-02-08T21:29:44.099Z,21.33
2023-02-08T21:34:51.208Z,20.87
2023-02-08T21:39:56.262Z,20.77
2023-02-08T21:45:14.534Z,21.93
2023-02-08T21:50:37.224Z,21.83
2023-02-08T21:55:53.134Z,20.23
2023-02-08T22:00:56.453Z,21.30
2023-02-08T22:06:18.913Z,19.97
2023-02-08T22:11:22.713Z,21.70
2023-02-08T22:16:26.537Z,23.20
2023-02-08T22:21:31.831Z,21.00
2023-02-08T22:26:35.142Z,23.40
2023-02-08T22:31:38.381Z,24.40
2023-02-08T22:36:51.221Z,23.20
2023-02-08T22:41:55.054Z,22.43
2023-02-08T22:47:01.989Z,22.40
2023-02-08T22:52:08.318Z,23.20
2023-02-08T22:57:12.393Z,25.53
2023-02-08T23:02:17.570Z,25.73
2023-02-08T23:07:22.109Z,23.80
2023-02-08T23:12:25.561Z,23.97
2023-02-08T23:17:29.013Z,24.30
2023-02-08T23:22:37.700Z,23.83
2023-02-08T23:27:40.839Z,25.20
2023-02-08T23:32:44.225Z,23.20
2023-02-08T23:37:48.879Z,23.33
2023-02-08T23:42:52.213Z,23.90
2023-02-08T23:47:55.928Z,22.97
2023-02-08T23:53:00.565Z,23.70
2023-02-08T23:58:04.289Z,23.73
